Time;durP1;ratioP1;P1;durP2;ratioP2;P2;SDS_P1;SDS_P2;PMS_P1;PMS_P2;Temp;Humidity;BMP_temperature;BMP_pressure;BME280_temperature;BME280_humidity;BME280_pressure;Samples;Min_cycle;Max_cycle;Signal;HPM_P1;HPM_P2
2022/07/03 00:01:22;;;;;;;3.80;2.10;;;14.60;54.40;;;;;;5047762;28;46725;-62
2022/07/03 00:03:47;;;;;;;6.97;2.70;;;14.50;54.60;;;;;;5049531;28;46534;-62
2022/07/03 00:06:13;;;;;;;5.37;2.50;;;14.50;54.90;;;;;;5049071;28;46424;-62
2022/07/03 00:08:39;;;;;;;4.37;2.40;;;14.50;55.10;;;;;;5048253;28;46375;-62
2022/07/03 00:11:05;;;;;;;4.07;2.30;;;14.40;55.60;;;;;;5049601;28;46390;-62
2022/07/03 00:13:31;;;;;;;3.60;2.17;;;14.40;55.70;;;;;;5049361;28;46465;-63
2022/07/03 00:15:57;;;;;;;6.43;2.83;;;14.40;55.70;;;;;;5052202;28;46435;-62
2022/07/03 00:18:22;;;;;;;5.13;2.80;;;14.40;55.70;;;;;;5050160;28;46464;-63
2022/07/03 00:20:54;;;;;;;9.93;2.57;;;14.40;55.70;;;;;;5050378;28;47653;-62
2022/07/03 00:23:22;;;;;;;3.90;2.57;;;14.30;55.60;;;;;;5054121;28;46868;-62
2022/07/03 00:25:49;;;;;;;5.80;2.60;;;14.30;55.60;;;;;;5052323;28;46530;-62
2022/07/03 00:28:18;;;;;;;6.77;2.80;;;14.30;55.60;;;;;;5051154;28;46553;-63
2022/07/03 00:30:47;;;;;;;5.63;2.97;;;14.20;55.50;;;;;;5050336;28;46585;-62
2022/07/03 00:33:14;;;;;;;5.07;2.60;;;14.20;56.00;;;;;;5050173;28;46620;-62
2022/07/03 00:35:41;;;;;;;5.53;2.50;;;14.10;56.20;;;;;;5049971;28;46481;-64
2022/07/03 00:38:07;;;;;;;5.50;2.80;;;14.10;56.30;;;;;;5050763;28;46524;-62
2022/07/03 00:40:33;;;;;;;3.87;2.57;;;14.10;56.30;;;;;;5048223;28;47226;-62
2022/07/03 00:43:00;;;;;;;5.37;2.47;;;14.10;56.40;;;;;;5049410;28;46334;-62
2022/07/03 00:45:26;;;;;;;5.73;2.30;;;14.10;56.40;;;;;;5049088;28;46416;-62
2022/07/03 00:47:54;;;;;;;4.47;2.73;;;14.10;56.50;;;;;;5049817;28;46391;-62
2022/07/03 00:50:33;;;;;;;4.60;2.60;;;14.10;56.70;;;;;;5049551;28;46692;-62
2022/07/03 00:53:00;;;;;;;7.70;3.43;;;14.00;56.80;;;;;;5047984;28;46406;-61
2022/07/03 00:55:27;;;;;;;6.50;2.73;;;14.00;56.90;;;;;;5047507;28;46383;-61
2022/07/03 00:57:55;;;;;;;12.27;3.20;;;14.00;57.10;;;;;;5047318;28;46366;-61
2022/07/03 01:00:21;;;;;;;4.10;2.60;;;14.00;57.20;;;;;;5047747;28;46502;-62
2022/07/03 01:03:01;;;;;;;12.20;3.30;;;14.00;57.20;;;;;;5048719;28;45816;-61
2022/07/03 01:05:43;;;;;;;4.80;3.07;;;13.90;57.40;;;;;;5049168;28;46508;-62
2022/07/03 01:08:20;;;;;;;7.23;2.93;;;13.90;57.80;;;;;;5047435;28;46241;-63
2022/07/03 01:10:49;;;;;;;7.40;3.27;;;13.80;57.60;;;;;;5049313;28;46570;-64
2022/07/03 01:13:35;;;;;;;3.57;2.50;;;13.80;57.60;;;;;;5056138;28;46469;-62
2022/07/03 01:16:11;;;;;;;8.13;3.20;;;13.80;57.90;;;;;;5050498;28;46379;-64
2022/07/03 01:19:02;;;;;;;12.77;3.43;;;13.80;57.90;;;;;;5050269;28;46537;-62
2022/07/03 01:21:51;;;;;;;7.50;3.07;;;13.80;57.80;;;;;;5048719;28;47195;-62
2022/07/03 01:24:54;;;;;;;6.00;2.60;;;13.80;57.90;;;;;;5048578;28;46362;-62
2022/07/03 01:27:51;;;;;;;5.90;3.50;;;13.80;57.90;;;;;;5050256;28;46505;-64
2022/07/03 01:30:20;;;;;;;10.73;3.63;;;13.80;58.00;;;;;;5046705;28;46557;-62
2022/07/03 01:32:58;;;;;;;7.03;3.33;;;13.70;57.70;;;;;;5049357;28;47267;-62
2022/07/03 01:35:32;;;;;;;5.50;3.57;;;13.70;58.00;;;;;;5047616;28;46315;-62
2022/07/03 01:38:03;;;;;;;7.10;2.83;;;13.70;58.10;;;;;;5047469;28;46466;-64
2022/07/03 01:40:29;;;;;;;5.57;3.57;;;13.60;58.30;;;;;;5048485;28;46540;-63
2022/07/03 01:42:57;;;;;;;6.63;3.30;;;13.50;58.50;;;;;;5046818;28;46097;-63
2022/07/03 01:45:26;;;;;;;10.13;3.37;;;13.50;58.80;;;;;;5046366;28;45917;-63
2022/07/03 01:47:52;;;;;;;7.07;4.10;;;13.50;58.90;;;;;;5046510;28;46363;-63
2022/07/03 01:50:21;;;;;;;6.60;3.40;;;13.50;58.90;;;;;;5046363;28;46521;-62
2022/07/03 01:52:49;;;;;;;5.37;3.87;;;13.50;59.00;;;;;;5046758;28;47193;-63
2022/07/03 01:55:15;;;;;;;9.90;3.90;;;13.50;59.20;;;;;;5046608;28;46143;-62
2022/07/03 01:57:46;;;;;;;8.13;4.50;;;13.50;59.10;;;;;;5047448;28;46497;-63
2022/07/03 02:00:14;;;;;;;6.67;3.30;;;13.50;59.30;;;;;;5047051;28;46625;-62
2022/07/03 02:02:46;;;;;;;7.10;3.47;;;13.50;59.20;;;;;;5046289;28;46651;-63
2022/07/03 02:05:25;;;;;;;7.50;4.03;;;13.60;59.30;;;;;;5049182;28;46404;-62
2022/07/03 02:08:08;;;;;;;6.70;3.37;;;13.60;59.40;;;;;;5047840;28;46636;-62
2022/07/03 02:10:40;;;;;;;7.70;4.07;;;13.50;59.50;;;;;;5047364;28;46501;-62
2022/07/03 02:13:27;;;;;;;6.50;3.80;;;13.50;59.90;;;;;;5048521;28;47530;-61
2022/07/03 02:15:56;;;;;;;11.17;3.93;;;13.50;60.00;;;;;;5047656;28;46473;-62
2022/07/03 02:18:30;;;;;;;8.47;4.50;;;13.40;60.00;;;;;;5046066;28;46173;-63
2022/07/03 02:21:05;;;;;;;8.40;3.67;;;13.40;60.20;;;;;;5047397;28;46370;-62
2022/07/03 02:23:35;;;;;;;9.77;3.60;;;13.40;60.30;;;;;;5047206;28;46606;-62
2022/07/03 02:26:05;;;;;;;11.50;4.83;;;13.30;60.50;;;;;;5047258;28;46331;-62
2022/07/03 02:29:01;;;;;;;13.60;3.60;;;13.30;60.60;;;;;;5047175;28;46551;-62
2022/07/03 02:31:27;;;;;;;11.00;3.63;;;13.30;60.80;;;;;;5048089;28;46362;-62
2022/07/03 02:33:58;;;;;;;4.60;3.40;;;13.30;60.60;;;;;;5048535;28;46918;-62
2022/07/03 02:36:28;;;;;;;9.57;4.40;;;13.30;60.60;;;;;;5046167;28;46387;-62
2022/07/03 02:38:56;;;;;;;13.23;3.93;;;13.30;60.70;;;;;;5042319;28;46426;-60
2022/07/03 02:41:34;;;;;;;7.30;3.00;;;13.30;60.90;;;;;;5044898;28;46683;-62
2022/07/03 02:44:17;;;;;;;6.53;3.67;;;13.30;61.00;;;;;;5045222;28;47084;-64
2022/07/03 02:46:54;;;;;;;10.83;3.47;;;13.30;61.00;;;;;;5046978;28;46453;-63
2022/07/03 02:49:38;;;;;;;9.27;3.30;;;13.30;60.90;;;;;;5046350;28;46414;-63
2022/07/03 02:52:25;;;;;;;12.13;3.43;;;13.30;60.80;;;;;;5045989;28;46592;-62
2022/07/03 02:54:54;;;;;;;10.27;3.40;;;13.30;60.90;;;;;;5047092;28;46402;-61
2022/07/03 02:57:20;;;;;;;6.33;3.40;;;13.30;60.70;;;;;;5047370;28;46348;-63
2022/07/03 02:59:56;;;;;;;7.50;3.60;;;13.30;60.90;;;;;;5047480;28;46404;-64
2022/07/03 03:02:21;;;;;;;6.83;3.40;;;13.30;61.10;;;;;;5046710;28;46189;-61
2022/07/03 03:05:12;;;;;;;9.10;3.47;;;13.20;61.10;;;;;;5048616;28;47139;-62
2022/07/03 03:08:04;;;;;;;5.50;3.40;;;13.20;61.40;;;;;;5050576;28;46447;-62
2022/07/03 03:10:36;;;;;;;6.17;3.27;;;13.30;61.40;;;;;;5051426;28;46605;-62
2022/07/03 03:13:09;;;;;;;6.77;3.50;;;13.30;61.20;;;;;;5051043;28;46407;-62
2022/07/03 03:15:36;;;;;;;6.20;4.00;;;13.30;61.10;;;;;;5049786;28;46665;-62
2022/07/03 03:18:07;;;;;;;12.30;3.43;;;13.30;61.10;;;;;;5048974;28;46421;-62
2022/07/03 03:20:35;;;;;;;6.53;3.43;;;13.40;61.10;;;;;;5049963;28;46395;-63
2022/07/03 03:23:22;;;;;;;8.07;3.27;;;13.50;61.00;;;;;;5048457;28;46635;-62
2022/07/03 03:25:51;;;;;;;5.20;3.40;;;13.50;60.90;;;;;;5048352;28;47998;-62
2022/07/03 03:28:16;;;;;;;6.13;3.43;;;13.60;60.80;;;;;;5048946;28;46425;-63
2022/07/03 03:30:42;;;;;;;5.50;3.00;;;13.60;61.00;;;;;;5049154;28;45917;-62
2022/07/03 03:33:09;;;;;;;6.80;3.67;;;13.60;61.10;;;;;;5049424;28;46521;-63
2022/07/03 03:35:39;;;;;;;10.50;3.97;;;13.60;61.20;;;;;;5049354;28;47346;-62
2022/07/03 03:38:05;;;;;;;8.43;3.73;;;13.60;61.40;;;;;;5049159;28;46428;-62
2022/07/03 03:40:34;;;;;;;7.57;3.80;;;13.60;61.40;;;;;;5048441;28;46354;-62
2022/07/03 03:43:01;;;;;;;5.43;3.63;;;13.60;61.40;;;;;;5049915;28;46929;-62
2022/07/03 03:45:27;;;;;;;5.43;3.43;;;13.70;61.60;;;;;;5051524;28;46397;-61
2022/07/03 03:47:52;;;;;;;8.43;3.30;;;13.70;61.50;;;;;;5050970;28;46389;-62
2022/07/03 03:50:18;;;;;;;9.23;3.50;;;13.80;61.30;;;;;;5050713;28;46449;-63
2022/07/03 03:52:44;;;;;;;14.83;3.17;;;13.90;61.10;;;;;;5051065;28;46444;-63
2022/07/03 03:55:09;;;;;;;8.60;3.10;;;13.90;61.00;;;;;;5049303;28;46951;-63
2022/07/03 03:57:36;;;;;;;7.93;3.20;;;14.10;60.90;;;;;;5058714;28;46481;-61
2022/07/03 04:00:03;;;;;;;5.00;3.60;;;14.20;60.80;;;;;;5049336;28;46351;-62
2022/07/03 04:02:29;;;;;;;9.73;4.13;;;14.20;60.70;;;;;;5050411;28;46369;-62
2022/07/03 04:04:55;;;;;;;7.20;3.30;;;14.30;60.80;;;;;;5051351;28;46382;-62
2022/07/03 04:07:20;;;;;;;5.80;3.80;;;14.50;61.00;;;;;;5049974;28;46354;-63
2022/07/03 04:09:46;;;;;;;9.87;3.43;;;14.60;61.10;;;;;;5050626;28;46448;-62
2022/07/03 04:12:11;;;;;;;7.00;3.60;;;14.60;61.20;;;;;;5050396;28;46546;-62
2022/07/03 04:14:37;;;;;;;6.40;3.73;;;14.80;61.30;;;;;;5049322;28;47197;-62
2022/07/03 04:17:03;;;;;;;11.73;3.30;;;14.80;61.40;;;;;;5049246;28;46674;-61
2022/07/03 04:19:29;;;;;;;6.73;3.43;;;14.90;61.50;;;;;;5048264;28;46304;-62
2022/07/03 04:21:55;;;;;;;8.50;3.50;;;14.90;61.40;;;;;;5049192;28;46605;-61
2022/07/03 04:24:21;;;;;;;7.10;3.47;;;15.00;61.30;;;;;;5049061;28;46443;-61
2022/07/03 04:26:47;;;;;;;4.90;3.20;;;15.10;61.00;;;;;;5049607;28;46492;-62
2022/07/03 04:29:13;;;;;;;6.60;3.80;;;15.30;60.80;;;;;;5048999;28;46173;-61
2022/07/03 04:31:38;;;;;;;9.17;4.00;;;15.50;60.60;;;;;;5049069;28;46433;-61
2022/07/03 04:34:04;;;;;;;11.00;4.40;;;15.70;60.50;;;;;;5048621;28;46320;-62
2022/07/03 04:36:30;;;;;;;7.97;3.63;;;15.90;60.40;;;;;;5049463;28;46377;-62
2022/07/03 04:38:55;;;;;;;7.73;4.17;;;16.00;60.20;;;;;;5048685;28;46366;-62
2022/07/03 04:41:21;;;;;;;12.43;3.43;;;16.30;60.10;;;;;;5049045;28;46390;-62
2022/07/03 04:43:46;;;;;;;17.10;3.47;;;16.60;60.10;;;;;;5048493;28;46306;-62
2022/07/03 04:46:12;;;;;;;7.80;4.00;;;16.70;59.60;;;;;;5050874;28;46287;-63
2022/07/03 04:48:38;;;;;;;9.03;2.90;;;17.60;58.70;;;;;;5048062;28;46495;-62
2022/07/03 04:51:03;;;;;;;16.67;2.40;;;19.70;55.50;;;;;;5051065;28;46368;-64
2022/07/03 04:53:29;;;;;;;5.87;2.50;;;21.80;50.40;;;;;;5048920;28;47208;-62
2022/07/03 04:55:54;;;;;;;4.23;1.87;;;23.30;46.70;;;;;;5050315;28;45926;-63
2022/07/03 04:58:20;;;;;;;7.70;2.03;;;24.70;42.70;;;;;;5049596;28;46364;-62
2022/07/03 05:00:46;;;;;;;5.27;1.77;;;25.80;39.30;;;;;;5050342;28;46120;-63
2022/07/03 05:03:12;;;;;;;7.70;2.30;;;26.90;37.20;;;;;;5046666;28;46573;-63
2022/07/03 05:05:38;;;;;;;4.03;2.20;;;27.60;34.30;;;;;;5050275;28;46436;-62
2022/07/03 05:08:04;;;;;;;5.90;2.10;;;28.50;31.80;;;;;;5048262;28;46444;-63
2022/07/03 05:10:29;;;;;;;5.57;1.90;;;29.20;29.80;;;;;;5048700;28;46415;-61
2022/07/03 05:12:55;;;;;;;3.30;1.80;;;29.80;28.60;;;;;;5049008;28;46976;-62
2022/07/03 05:15:20;;;;;;;3.40;1.90;;;30.00;27.80;;;;;;5049426;28;46396;-61
2022/07/03 05:17:47;;;;;;;4.40;2.20;;;30.80;26.20;;;;;;5047714;28;46484;-62
2022/07/03 05:20:25;;;;;;;3.70;1.90;;;31.50;24.30;;;;;;5049989;28;46637;-62
2022/07/03 05:22:52;;;;;;;3.37;1.80;;;31.80;23.70;;;;;;5048132;28;46520;-62
2022/07/03 05:25:17;;;;;;;5.40;1.80;;;32.20;21.90;;;;;;5049932;28;46577;-61
2022/07/03 05:27:43;;;;;;;7.07;2.37;;;32.50;20.40;;;;;;5049092;28;46523;-62
2022/07/03 05:30:09;;;;;;;3.23;1.90;;;32.80;19.70;;;;;;5048226;28;45847;-62
2022/07/03 05:32:35;;;;;;;2.70;1.70;;;32.90;19.10;;;;;;5047044;28;48003;-62
2022/07/03 05:35:01;;;;;;;2.77;1.77;;;32.90;19.00;;;;;;5049215;28;46316;-62
2022/07/03 05:37:26;;;;;;;3.60;1.73;;;33.10;18.50;;;;;;5049089;28;45957;-61
2022/07/03 05:39:52;;;;;;;7.20;2.00;;;33.40;17.80;;;;;;5048448;28;46652;-61
2022/07/03 05:42:18;;;;;;;3.33;1.73;;;33.80;16.90;;;;;;5047318;28;46329;-61
2022/07/03 05:44:43;;;;;;;3.00;1.67;;;34.30;16.00;;;;;;5048545;28;46388;-63
2022/07/03 05:47:09;;;;;;;5.23;1.77;;;34.60;15.00;;;;;;5046098;28;46473;-62
2022/07/03 05:49:34;;;;;;;2.90;1.80;;;34.90;14.30;;;;;;5046057;28;46468;-62
2022/07/03 05:52:00;;;;;;;2.80;1.73;;;35.10;13.50;;;;;;5047386;28;47330;-62
2022/07/03 05:54:26;;;;;;;5.17;1.70;;;35.10;13.20;;;;;;5045966;28;46409;-63
2022/07/03 05:56:51;;;;;;;3.20;1.80;;;35.10;13.10;;;;;;5047136;28;46402;-61
2022/07/03 05:59:17;;;;;;;3.97;1.87;;;33.60;16.10;;;;;;5047370;28;46633;-61
2022/07/03 06:01:42;;;;;;;2.30;1.70;;;31.50;19.70;;;;;;5046184;28;47015;-64
2022/07/03 06:04:08;;;;;;;4.03;1.60;;;30.00;22.60;;;;;;5048059;28;46460;-63
2022/07/03 06:06:34;;;;;;;7.70;1.43;;;28.90;24.80;;;;;;5047239;28;46441;-62
2022/07/03 06:08:59;;;;;;;2.67;1.67;;;28.00;26.60;;;;;;5046843;28;46397;-62
2022/07/03 06:11:25;;;;;;;2.73;1.60;;;27.50;27.30;;;;;;5047752;28;46764;-63
2022/07/03 06:13:50;;;;;;;2.70;1.50;;;27.00;27.70;;;;;;5047201;28;46362;-62
2022/07/03 06:16:16;;;;;;;3.97;1.53;;;26.70;28.30;;;;;;5047896;28;46568;-64
2022/07/03 06:18:42;;;;;;;2.40;1.30;;;26.50;28.30;;;;;;5047767;28;46394;-62
2022/07/03 06:21:07;;;;;;;6.50;1.73;;;26.40;28.40;;;;;;5049335;28;46192;-62
2022/07/03 06:23:33;;;;;;;4.60;1.90;;;26.20;28.20;;;;;;5048014;28;46908;-62
2022/07/03 06:26:00;;;;;;;2.57;1.60;;;26.00;28.40;;;;;;5046798;28;46599;-61
2022/07/03 06:28:26;;;;;;;3.70;1.80;;;25.90;28.60;;;;;;5047573;28;46476;-62
2022/07/03 06:30:51;;;;;;;3.30;1.80;;;25.90;28.40;;;;;;5046762;28;46459;-62
2022/07/03 06:33:17;;;;;;;3.07;1.40;;;25.80;28.50;;;;;;5048501;28;46437;-63
2022/07/03 06:35:43;;;;;;;6.77;2.00;;;25.80;28.60;;;;;;5042682;28;46749;-64
2022/07/03 06:38:09;;;;;;;6.13;1.60;;;25.80;28.60;;;;;;5046682;28;46891;-64
2022/07/03 06:40:35;;;;;;;2.73;1.77;;;25.90;28.50;;;;;;5049571;28;46442;-61
2022/07/03 06:43:00;;;;;;;6.97;1.70;;;25.80;28.90;;;;;;5034771;28;46584;-61
2022/07/03 06:45:26;;;;;;;8.33;1.90;;;25.70;29.10;;;;;;5030594;28;46426;-61
2022/07/03 06:47:52;;;;;;;3.33;1.90;;;25.50;29.20;;;;;;5034819;28;46634;-62
2022/07/03 06:50:17;;;;;;;7.53;1.60;;;25.50;29.30;;;;;;5044691;28;46307;-64
2022/07/03 06:52:43;;;;;;;3.20;1.77;;;25.50;29.60;;;;;;5041697;28;46825;-63
2022/07/03 06:55:09;;;;;;;8.80;2.00;;;25.60;29.70;;;;;;5043249;28;46451;-62
2022/07/03 06:57:34;;;;;;;4.90;1.90;;;25.80;29.40;;;;;;5045016;28;45906;-63
2022/07/03 07:00:00;;;;;;;4.30;2.23;;;25.80;29.30;;;;;;5042391;28;46540;-63
2022/07/03 07:02:25;;;;;;;3.00;1.87;;;25.60;29.60;;;;;;5044848;28;45920;-63
2022/07/03 07:04:51;;;;;;;3.53;1.97;;;25.50;29.80;;;;;;5047398;28;46536;-62
2022/07/03 07:07:17;;;;;;;7.53;1.90;;;25.40;30.00;;;;;;5044374;28;46584;-63
2022/07/03 07:09:42;;;;;;;3.70;1.90;;;25.30;30.40;;;;;;5045186;28;46821;-62
2022/07/03 07:12:08;;;;;;;2.80;1.70;;;25.20;31.00;;;;;;5044995;28;46594;-64
2022/07/03 07:14:34;;;;;;;3.20;1.90;;;25.30;31.00;;;;;;5044365;28;46824;-63
2022/07/03 07:17:00;;;;;;;4.00;1.80;;;25.30;31.60;;;;;;5043121;28;46462;-64
2022/07/03 07:19:25;;;;;;;3.70;2.07;;;25.40;31.40;;;;;;5044911;28;46469;-63
2022/07/03 07:21:51;;;;;;;3.20;2.07;;;25.50;31.20;;;;;;5045233;28;46760;-62
2022/07/03 07:24:16;;;;;;;3.90;2.00;;;25.60;31.10;;;;;;5045227;28;46633;-64
2022/07/03 07:26:42;;;;;;;3.10;1.93;;;25.80;30.50;;;;;;5046908;28;45885;-64
2022/07/03 07:29:08;;;;;;;2.90;1.80;;;25.90;30.30;;;;;;5046099;28;47007;-62
2022/07/03 07:31:33;;;;;;;6.30;1.80;;;26.10;30.00;;;;;;5047141;28;46438;-63
2022/07/03 07:33:59;;;;;;;2.77;1.77;;;26.20;29.50;;;;;;5046024;28;46631;-61
2022/07/03 07:36:25;;;;;;;3.13;1.90;;;26.30;29.40;;;;;;5046095;28;46507;-62
2022/07/03 07:38:50;;;;;;;3.70;1.60;;;26.40;28.70;;;;;;5045370;28;47073;-61
2022/07/03 07:41:16;;;;;;;3.33;1.70;;;26.40;28.50;;;;;;5047555;28;46666;-63
2022/07/03 07:43:42;;;;;;;4.23;1.70;;;26.50;28.40;;;;;;5048013;28;46669;-62
2022/07/03 07:46:07;;;;;;;3.80;1.73;;;26.50;28.70;;;;;;5046608;28;46414;-63
2022/07/03 07:48:36;;;;;;;3.00;1.50;;;26.40;28.20;;;;;;5047466;28;46037;-61
2022/07/03 07:51:01;;;;;;;6.17;1.90;;;26.40;28.70;;;;;;5047515;28;46840;-64
2022/07/03 07:53:27;;;;;;;4.77;2.00;;;26.40;28.00;;;;;;5051813;28;46435;-62
2022/07/03 07:55:52;;;;;;;2.70;1.60;;;26.40;27.50;;;;;;5049572;28;46401;-64
2022/07/03 07:58:18;;;;;;;3.63;1.57;;;26.40;27.20;;;;;;5046745;28;46983;-63
2022/07/03 08:06:14;;;;;;;3.27;1.60;;;26.40;26.70;;;;;;5050130;28;46371;-63
2022/07/03 08:08:40;;;;;;;2.30;1.40;;;26.30;26.70;;;;;;5047649;28;46485;-64
2022/07/03 08:11:06;;;;;;;3.17;1.80;;;26.20;26.60;;;;;;5047947;28;46421;-64
2022/07/03 08:13:31;;;;;;;5.07;2.00;;;26.30;26.20;;;;;;5048532;28;46426;-62
2022/07/03 08:15:57;;;;;;;5.10;1.73;;;26.20;25.60;;;;;;5048925;28;46407;-60
2022/07/03 08:18:22;;;;;;;2.97;1.57;;;26.20;25.70;;;;;;5048041;28;46483;-61
2022/07/03 08:20:48;;;;;;;12.83;2.03;;;26.30;25.60;;;;;;5042912;28;46526;-62
2022/07/03 08:23:14;;;;;;;6.07;1.90;;;26.30;25.20;;;;;;5044736;28;46582;-62
2022/07/03 08:25:40;;;;;;;5.90;1.90;;;26.30;25.00;;;;;;5046753;28;46386;-63
2022/07/03 08:28:05;;;;;;;5.97;1.80;;;26.40;24.60;;;;;;5043841;28;46442;-61
2022/07/03 08:30:31;;;;;;;3.67;1.77;;;26.40;24.00;;;;;;5046155;28;46497;-63
2022/07/03 08:32:58;;;;;;;5.17;1.60;;;26.50;23.70;;;;;;5046419;28;46468;-65
2022/07/03 08:35:24;;;;;;;3.67;1.67;;;26.70;23.30;;;;;;5043584;28;46572;-63
2022/07/03 08:37:50;;;;;;;5.30;1.60;;;26.70;23.20;;;;;;5045703;28;46363;-62
2022/07/03 08:40:17;;;;;;;4.47;1.50;;;26.80;23.20;;;;;;5046003;28;46366;-62
2022/07/03 08:42:54;;;;;;;2.40;1.50;;;27.00;23.20;;;;;;5046329;28;46643;-65
2022/07/03 08:45:21;;;;;;;5.17;1.67;;;27.30;22.60;;;;;;5046863;28;46412;-62
2022/07/03 08:47:48;;;;;;;7.37;1.40;;;27.40;22.70;;;;;;5045325;28;47287;-64
2022/07/03 08:50:17;;;;;;;3.07;1.80;;;27.60;22.30;;;;;;5044753;28;46520;-63
2022/07/03 08:52:43;;;;;;;5.73;1.60;;;27.80;21.90;;;;;;5045516;28;46555;-65
2022/07/03 08:55:10;;;;;;;3.13;1.60;;;28.00;21.50;;;;;;5045268;28;46473;-62
2022/07/03 08:57:37;;;;;;;8.90;1.43;;;28.10;21.40;;;;;;5045643;28;47191;-63
2022/07/03 09:00:08;;;;;;;2.93;1.60;;;28.20;21.10;;;;;;5044703;28;46335;-63
2022/07/03 09:02:34;;;;;;;2.97;1.30;;;28.00;20.50;;;;;;5044138;28;46376;-64
2022/07/03 09:05:02;;;;;;;2.60;1.50;;;27.80;20.30;;;;;;5046074;28;46465;-62
2022/07/03 09:07:30;;;;;;;3.00;1.50;;;28.00;21.30;;;;;;5045150;28;46489;-62
2022/07/03 09:09:56;;;;;;;4.57;1.50;;;28.10;20.00;;;;;;5045081;28;46639;-61
2022/07/03 09:12:22;;;;;;;5.73;1.30;;;28.30;19.50;;;;;;5044926;28;46441;-61
2022/07/03 09:14:48;;;;;;;5.40;1.50;;;28.50;19.50;;;;;;5042808;28;46573;-61
2022/07/03 09:17:14;;;;;;;3.27;1.30;;;28.60;19.30;;;;;;5043834;28;47020;-63
2022/07/03 09:19:42;;;;;;;3.70;1.53;;;28.50;19.40;;;;;;5042288;28;46423;-61
2022/07/03 09:22:21;;;;;;;2.10;1.20;;;28.60;19.10;;;;;;5044498;28;46406;-62
2022/07/03 09:24:52;;;;;;;2.47;1.50;;;28.80;19.00;;;;;;5045663;28;46642;-61
2022/07/03 09:27:19;;;;;;;2.97;1.60;;;28.80;18.90;;;;;;5043316;28;46389;-62
2022/07/03 09:30:04;;;;;;;3.17;1.40;;;28.70;18.30;;;;;;5042740;28;46434;-62
2022/07/03 09:32:43;;;;;;;3.00;1.40;;;28.80;17.80;;;;;;5043202;28;46361;-62
2022/07/03 09:35:16;;;;;;;2.40;1.30;;;28.90;17.60;;;;;;5044929;28;46524;-61
2022/07/03 09:37:50;;;;;;;2.93;1.20;;;29.00;17.00;;;;;;5048075;28;47336;-61
2022/07/03 09:40:16;;;;;;;4.30;1.47;;;29.00;17.00;;;;;;5046925;28;46392;-61
2022/07/03 09:43:06;;;;;;;4.40;1.50;;;29.00;17.00;;;;;;5046255;28;46561;-61
2022/07/03 09:45:57;;;;;;;2.30;1.30;;;29.10;17.00;;;;;;5046501;28;46480;-62
2022/07/03 09:48:25;;;;;;;3.40;1.40;;;29.00;15.50;;;;;;5045397;28;46428;-64
2022/07/03 09:51:23;;;;;;;3.50;1.27;;;28.70;15.60;;;;;;5044989;28;45834;-63
2022/07/03 09:54:01;;;;;;;7.00;1.40;;;28.60;15.30;;;;;;5046068;28;47526;-62
2022/07/03 09:56:28;;;;;;;3.47;1.20;;;28.60;14.60;;;;;;5046571;28;46508;-62
2022/07/03 09:59:03;;;;;;;2.40;1.27;;;28.50;15.00;;;;;;5045116;28;46541;-58
2022/07/03 10:01:28;;;;;;;3.30;1.20;;;28.40;14.80;;;;;;5041308;28;46790;-60
2022/07/03 10:04:07;;;;;;;4.53;1.33;;;28.50;14.90;;;;;;5044195;28;46532;-59
2022/07/03 10:06:49;;;;;;;2.43;1.40;;;28.70;15.10;;;;;;5046745;28;46393;-59
2022/07/03 10:09:16;;;;;;;2.10;1.10;;;28.60;16.10;;;;;;5044329;28;47122;-60
2022/07/03 10:11:43;;;;;;;6.40;1.30;;;28.90;15.40;;;;;;5044221;28;46788;-58
2022/07/03 10:14:20;;;;;;;2.77;1.30;;;29.00;15.20;;;;;;5043631;28;46477;-58
2022/07/03 10:16:46;;;;;;;2.00;1.20;;;29.00;15.00;;;;;;5045161;28;46331;-59
2022/07/03 10:19:23;;;;;;;2.33;1.10;;;29.10;14.90;;;;;;5046520;28;47118;-59
2022/07/03 10:21:55;;;;;;;2.17;1.30;;;29.40;14.90;;;;;;5046076;28;45889;-60
2022/07/03 10:24:28;;;;;;;2.83;1.20;;;29.60;15.00;;;;;;5044327;28;46492;-61
2022/07/03 10:26:55;;;;;;;2.27;1.10;;;29.70;15.40;;;;;;5045181;28;46453;-61
2022/07/03 10:29:23;;;;;;;2.10;1.10;;;29.70;14.00;;;;;;5043749;28;48111;-61
2022/07/03 10:31:49;;;;;;;3.53;1.20;;;29.70;13.60;;;;;;5042562;28;46446;-60
2022/07/03 10:34:20;;;;;;;2.40;0.97;;;29.50;13.10;;;;;;5043456;28;46474;-63
2022/07/03 10:36:49;;;;;;;3.13;1.20;;;29.50;13.20;;;;;;5045421;28;46434;-62
2022/07/03 10:39:27;;;;;;;2.07;1.03;;;29.70;13.10;;;;;;5042988;28;46565;-62
2022/07/03 10:45:09;;;;;;;3.87;1.17;;;29.60;12.20;;;;;;5044818;28;46469;-62
2022/07/03 10:47:49;;;;;;;4.57;1.30;;;29.70;12.30;;;;;;5042318;28;46656;-64
2022/07/03 10:50:19;;;;;;;4.60;1.30;;;29.70;12.10;;;;;;5043182;28;46395;-62
2022/07/03 10:52:45;;;;;;;2.77;1.00;;;29.60;11.70;;;;;;5043212;28;46491;-63
2022/07/03 10:55:12;;;;;;;4.93;1.20;;;29.60;11.60;;;;;;5043235;28;46536;-64
2022/07/03 10:57:39;;;;;;;3.47;1.10;;;29.60;11.70;;;;;;5042080;28;46568;-61
2022/07/03 11:00:15;;;;;;;3.10;1.27;;;29.80;11.80;;;;;;5043820;28;46547;-61
2022/07/03 11:02:44;;;;;;;5.17;1.10;;;29.60;11.50;;;;;;5042755;28;46476;-61
2022/07/03 11:05:18;;;;;;;2.30;0.93;;;29.60;11.70;;;;;;5042696;28;46530;-62
2022/07/03 11:07:53;;;;;;;2.20;1.30;;;29.60;11.70;;;;;;5043932;28;46553;-61
2022/07/03 11:10:18;;;;;;;2.93;1.00;;;29.40;11.20;;;;;;5043078;28;46399;-61
2022/07/03 11:12:57;;;;;;;2.73;1.03;;;29.40;11.20;;;;;;5043785;28;46529;-61
2022/07/03 11:15:26;;;;;;;2.10;1.10;;;29.30;10.10;;;;;;5043306;28;46532;-61
2022/07/03 11:18:13;;;;;;;2.17;1.10;;;29.40;10.50;;;;;;5044505;28;46473;-62
2022/07/03 11:20:41;;;;;;;2.60;1.27;;;29.50;10.00;;;;;;5043323;28;47157;-62
2022/07/03 11:23:13;;;;;;;2.53;1.10;;;29.60;10.10;;;;;;5043088;28;46580;-62
2022/07/03 11:25:43;;;;;;;3.27;1.30;;;29.70;10.40;;;;;;5045175;28;46474;-61
2022/07/03 11:28:47;;;;;;;3.53;1.20;;;29.80;10.30;;;;;;5047019;28;46594;-66
2022/07/03 11:31:18;;;;;;;2.47;1.00;;;29.80;10.60;;;;;;5048047;28;46465;-64
2022/07/03 11:33:53;;;;;;;3.43;0.90;;;29.80;10.60;;;;;;5046159;28;46382;-63
2022/07/03 11:36:21;;;;;;;2.70;1.20;;;29.90;10.60;;;;;;5047522;28;46480;-59
2022/07/03 11:39:04;;;;;;;2.40;1.10;;;29.80;10.70;;;;;;5046524;28;46617;-60
2022/07/03 11:41:36;;;;;;;2.17;1.10;;;29.70;10.50;;;;;;5048949;28;47225;-61
2022/07/03 11:44:04;;;;;;;3.60;1.20;;;29.50;10.40;;;;;;5046318;28;46442;-62
2022/07/03 11:46:32;;;;;;;2.53;1.00;;;29.50;10.70;;;;;;5046088;28;46549;-62
2022/07/03 11:49:10;;;;;;;2.97;1.23;;;29.50;10.50;;;;;;5046595;28;46346;-60
2022/07/03 11:51:38;;;;;;;3.70;1.63;;;29.50;10.50;;;;;;5046446;28;46388;-60
2022/07/03 11:54:04;;;;;;;2.17;1.00;;;29.80;10.40;;;;;;5046011;28;46530;-61
2022/07/03 11:56:30;;;;;;;4.20;1.70;;;30.00;10.40;;;;;;5045905;28;46587;-62
2022/07/03 11:58:58;;;;;;;4.83;1.70;;;29.90;10.70;;;;;;5042199;28;46377;-61
2022/07/03 12:01:27;;;;;;;9.53;2.50;;;29.80;9.50;;;;;;5048149;28;47123;-60
2022/07/03 12:03:53;;;;;;;3.47;1.30;;;29.70;9.90;;;;;;5042036;28;46545;-60
2022/07/03 12:06:20;;;;;;;4.97;1.20;;;29.60;9.60;;;;;;5050039;28;46472;-62
2022/07/03 12:08:46;;;;;;;3.97;1.20;;;29.60;9.90;;;;;;5042361;28;46676;-66
2022/07/03 12:11:13;;;;;;;2.60;1.23;;;29.80;9.80;;;;;;5045483;28;49189;-64
2022/07/03 12:13:39;;;;;;;2.50;1.10;;;30.00;9.90;;;;;;5045005;28;46494;-62
2022/07/03 12:16:11;;;;;;;2.87;1.13;;;30.20;9.60;;;;;;5044763;28;46555;-64
2022/07/03 12:18:51;;;;;;;2.27;1.23;;;30.20;8.90;;;;;;5040932;28;46481;-62
2022/07/03 12:21:18;;;;;;;12.83;1.33;;;30.00;8.70;;;;;;5045099;28;46432;-62
2022/07/03 12:23:55;;;;;;;2.10;1.00;;;29.90;8.80;;;;;;5044780;28;46445;-62
2022/07/03 12:26:34;;;;;;;2.43;1.20;;;29.80;8.90;;;;;;5046261;28;46552;-61
2022/07/03 12:29:12;;;;;;;6.23;1.10;;;29.80;9.20;;;;;;5043738;28;46339;-65
2022/07/03 12:31:43;;;;;;;3.40;1.10;;;29.90;9.40;;;;;;5046053;28;46386;-62
2022/07/03 12:34:10;;;;;;;2.90;0.90;;;30.00;9.70;;;;;;5043965;28;46554;-63
2022/07/03 12:36:36;;;;;;;2.93;1.00;;;30.20;9.70;;;;;;5045320;28;45818;-62
2022/07/03 12:39:03;;;;;;;2.53;1.20;;;30.20;8.70;;;;;;5043020;28;46418;-60
2022/07/03 12:41:29;;;;;;;3.97;1.30;;;30.10;8.90;;;;;;5044606;28;47981;-59
2022/07/03 12:43:57;;;;;;;3.40;1.50;;;30.30;9.40;;;;;;5043610;28;46713;-61
2022/07/03 12:46:26;;;;;;;4.43;1.17;;;30.30;9.50;;;;;;5045260;28;46584;-62
2022/07/03 12:48:55;;;;;;;1.87;0.90;;;30.50;9.90;;;;;;5046816;28;46784;-61
2022/07/03 12:51:44;;;;;;;2.40;1.20;;;30.50;9.70;;;;;;5045079;28;47335;-62
2022/07/03 12:54:13;;;;;;;2.77;1.27;;;30.70;9.80;;;;;;5042359;28;46413;-61
2022/07/03 12:56:39;;;;;;;6.33;1.20;;;30.60;9.50;;;;;;5043334;28;46489;-62
2022/07/03 12:59:17;;;;;;;2.33;1.00;;;30.60;9.60;;;;;;5042956;28;46905;-60
2022/07/03 13:02:00;;;;;;;3.17;1.00;;;30.80;9.60;;;;;;5045495;28;46472;-60
2022/07/03 13:04:36;;;;;;;3.53;1.17;;;30.60;9.90;;;;;;5042975;28;46622;-61
2022/07/03 13:07:07;;;;;;;2.10;1.00;;;30.60;9.50;;;;;;5044665;28;46707;-62
2022/07/03 13:09:34;;;;;;;4.70;1.13;;;30.80;9.20;;;;;;5043742;28;46397;-60